createdAt,value
2018-06-05T00:00:52.897Z,4.93
2018-06-05T00:05:56.350Z,6.63
2018-06-05T00:10:59.768Z,7.33
2018-06-05T00:16:03.225Z,5.43
2018-06-05T00:21:06.650Z,5.87
2018-06-05T00:26:10.126Z,4.90
2018-06-05T00:31:13.559Z,5.00
2018-06-05T00:36:17.010Z,5.50
2018-06-05T00:41:20.422Z,5.60
2018-06-05T00:46:23.850Z,6.00
2018-06-05T00:51:38.459Z,5.90
2018-06-05T00:56:42.016Z,5.40
2018-06-05T01:01:45.507Z,5.87
2018-06-05T01:06:48.947Z,5.93
2018-06-05T01:11:52.439Z,5.27
2018-06-05T01:16:55.953Z,6.57
2018-06-05T01:21:59.393Z,6.63
2018-06-05T01:27:02.816Z,5.63
2018-06-05T01:32:06.288Z,6.93
2018-06-05T01:37:09.764Z,7.47
2018-06-05T01:42:13.214Z,6.20
2018-06-05T01:47:16.703Z,7.37
2018-06-05T01:52:20.128Z,7.97
2018-06-05T01:57:23.558Z,5.23
2018-06-05T02:02:27.005Z,6.77
2018-06-05T02:07:30.546Z,5.20
2018-06-05T02:12:34.024Z,5.50
2018-06-05T02:17:37.496Z,6.20
2018-06-05T02:22:40.919Z,5.60
2018-06-05T02:27:44.348Z,6.47
2018-06-05T02:32:47.834Z,6.47
2018-06-05T02:37:51.288Z,6.03
2018-06-05T02:42:54.731Z,5.57
2018-06-05T02:47:57.864Z,5.07
2018-06-05T02:53:01.269Z,6.10
2018-06-05T02:58:04.721Z,10.10
2018-06-05T03:03:08.178Z,6.33
2018-06-05T03:08:11.626Z,7.47
2018-06-05T03:13:15.012Z,7.37
2018-06-05T03:18:18.404Z,6.37
2018-06-05T03:23:21.795Z,7.90
2018-06-05T03:28:25.272Z,8.47
2018-06-05T03:33:28.387Z,8.33
2018-06-05T03:38:31.799Z,8.57
2018-06-05T03:43:35.192Z,8.60
2018-06-05T03:48:38.584Z,9.80
2018-06-05T03:53:42.037Z,7.87
2018-06-05T03:58:45.449Z,6.30
2018-06-05T04:03:48.579Z,6.47
2018-06-05T04:08:52.018Z,7.60
2018-06-05T04:13:55.466Z,6.73
2018-06-05T04:18:58.913Z,7.07
2018-06-05T04:24:02.320Z,6.20
2018-06-05T04:29:05.762Z,8.30
2018-06-05T04:34:09.212Z,7.17
2018-06-05T04:39:13.039Z,6.47
2018-06-05T04:44:16.456Z,8.07
2018-06-05T04:49:19.905Z,9.33
2018-06-05T04:54:22.996Z,9.07
2018-06-05T04:59:26.414Z,8.80
2018-06-05T05:04:29.819Z,11.37
2018-06-05T05:09:33.217Z,15.83
2018-06-05T05:14:36.672Z,14.20
2018-06-05T05:19:40.086Z,14.53
2018-06-05T05:24:43.468Z,15.87
2018-06-05T05:29:46.908Z,18.63
2018-06-05T05:34:50.357Z,15.57
2018-06-05T05:39:59.419Z,15.33
2018-06-05T05:45:02.864Z,16.07
2018-06-05T05:50:06.281Z,14.57
2018-06-05T05:55:09.719Z,13.20
2018-06-05T06:00:13.144Z,15.10
2018-06-05T06:05:16.551Z,14.43
2018-06-05T06:10:19.947Z,14.30
2018-06-05T06:15:23.349Z,12.97
2018-06-05T06:20:27.188Z,14.67
2018-06-05T06:25:30.597Z,15.17
2018-06-05T06:30:34.036Z,13.53
2018-06-05T06:35:37.142Z,13.30
2018-06-05T06:40:40.540Z,13.53
2018-06-05T06:45:43.927Z,15.27
2018-06-05T06:50:47.311Z,13.37
2018-06-05T06:55:55.765Z,12.40
2018-06-05T07:00:59.188Z,13.00
2018-06-05T07:06:02.587Z,13.73
2018-06-05T07:11:05.952Z,12.20
2018-06-05T07:16:09.374Z,14.80
2018-06-05T07:21:12.793Z,12.07
2018-06-05T07:26:16.210Z,13.13
2018-06-05T07:31:19.625Z,10.17
2018-06-05T07:36:23.038Z,11.80
2018-06-05T07:41:26.449Z,12.00
2018-06-05T07:46:29.848Z,10.93
2018-06-05T07:51:33.225Z,11.50
2018-06-05T07:56:36.644Z,10.37
2018-06-05T08:01:40.043Z,9.90
2018-06-05T08:06:43.422Z,9.40
2018-06-05T08:11:46.835Z,9.97
2018-06-05T08:16:50.191Z,10.37
2018-06-05T08:21:53.620Z,10.13
2018-06-05T08:26:57.017Z,10.90
2018-06-05T08:32:00.480Z,9.97
2018-06-05T08:37:03.933Z,8.93
2018-06-05T08:42:07.365Z,11.13
2018-06-05T08:47:10.797Z,10.53
2018-06-05T08:52:14.172Z,10.30
2018-06-05T08:57:17.567Z,10.60
2018-06-05T09:02:21.076Z,8.87
2018-06-05T09:07:24.522Z,9.03
2018-06-05T09:12:27.973Z,9.07
2018-06-05T09:17:31.350Z,9.13
2018-06-05T09:22:34.768Z,9.23
2018-06-05T09:27:38.152Z,8.60
2018-06-05T09:32:41.737Z,8.70
2018-06-05T09:37:45.185Z,9.93
2018-06-05T09:42:48.568Z,7.63
2018-06-05T09:47:52.013Z,8.50
2018-06-05T09:52:55.448Z,7.67
2018-06-05T09:57:58.630Z,7.43
2018-06-05T10:03:02.002Z,7.23
2018-06-05T10:08:05.437Z,6.33
2018-06-05T10:13:08.894Z,8.30
2018-06-05T10:18:12.337Z,6.87
2018-06-05T10:23:15.844Z,6.77
2018-06-05T10:28:19.445Z,7.03
2018-06-05T10:33:22.896Z,6.23
2018-06-05T10:38:26.395Z,7.37
2018-06-05T10:43:30.196Z,5.20
2018-06-05T10:48:33.710Z,6.77
2018-06-05T10:53:37.223Z,5.00
2018-06-05T10:58:40.749Z,5.00
2018-06-05T11:03:44.338Z,5.00
2018-06-05T11:08:47.977Z,5.50
2018-06-05T11:13:51.612Z,4.70
2018-06-05T11:18:55.290Z,5.23
2018-06-05T11:23:58.992Z,4.35
2018-06-05T11:29:02.915Z,4.40
2018-06-05T11:34:06.951Z,4.00
2018-06-05T11:39:10.764Z,4.30
2018-06-05T11:44:14.424Z,5.43
2018-06-05T11:49:18.969Z,4.15
2018-06-05T11:54:22.698Z,4.87
2018-06-05T11:59:27.663Z,4.05
2018-06-05T12:04:31.658Z,4.55
2018-06-05T12:09:35.337Z,5.10
2018-06-05T12:14:39.026Z,4.05
2018-06-05T12:19:43.763Z,3.70
2018-06-05T12:24:47.542Z,3.98
2018-06-05T12:29:54.377Z,4.97
2018-06-05T12:35:00.627Z,3.67
2018-06-05T12:40:04.429Z,3.80
2018-06-05T12:45:10.117Z,3.65
2018-06-05T12:50:26.054Z,4.10
2018-06-05T12:55:33.263Z,3.67
2018-06-05T13:00:37.251Z,8.13
2018-06-05T13:05:41.154Z,3.77
2018-06-05T13:10:45.908Z,3.92
2018-06-05T13:15:49.781Z,7.15
2018-06-05T13:21:01.625Z,3.60
2018-06-05T13:26:06.901Z,4.97
2018-06-05T13:31:10.734Z,3.55
2018-06-05T13:36:15.348Z,3.55
2018-06-05T13:41:18.952Z,3.25
2018-06-05T13:46:22.687Z,3.70
2018-06-05T13:51:27.448Z,4.83
2018-06-05T13:56:31.089Z,3.25
2018-06-05T14:01:34.827Z,3.08
2018-06-05T14:06:38.558Z,3.50
2018-06-05T14:11:42.256Z,3.72
2018-06-05T14:16:46.093Z,3.52
2018-06-05T14:21:49.867Z,3.37
2018-06-05T14:38:51.054Z,3.87
2018-06-05T15:17:48.016Z,3.60
2018-06-05T15:22:57.673Z,3.95
2018-06-05T15:28:06.151Z,5.20
2018-06-05T15:33:17.214Z,3.72
2018-06-05T15:38:23.710Z,3.27
2018-06-05T15:43:29.808Z,3.52
2018-06-05T15:48:36.697Z,3.75
2018-06-05T15:53:45.061Z,4.12
2018-06-05T15:58:51.114Z,2.98
2018-06-05T16:03:58.101Z,3.15
2018-06-05T16:09:06.258Z,3.12
2018-06-05T16:14:14.323Z,3.42
2018-06-05T16:19:21.629Z,3.22
2018-06-05T16:24:29.484Z,3.60
2018-06-05T16:29:34.284Z,3.20
2018-06-05T16:34:39.784Z,3.62
2018-06-05T16:39:46.379Z,4.25
2018-06-05T16:44:57.702Z,3.47
2018-06-05T16:50:03.778Z,3.37
2018-06-05T16:55:17.366Z,3.22
2018-06-05T17:00:20.655Z,3.10
2018-06-05T17:05:27.514Z,3.05
2018-06-05T17:10:34.165Z,2.95
2018-06-05T17:15:39.267Z,3.60
2018-06-05T17:20:43.944Z,3.17
2018-06-05T17:25:49.541Z,4.27
2018-06-05T17:30:54.246Z,3.10
2018-06-05T17:35:58.153Z,5.20
2018-06-05T17:41:01.882Z,5.70
2018-06-05T17:46:10.753Z,3.40
2018-06-05T17:51:14.012Z,4.47
2018-06-05T17:56:19.867Z,3.50
2018-06-05T18:01:24.402Z,4.10
2018-06-05T18:06:28.094Z,4.27
2018-06-05T18:11:33.016Z,3.67
2018-06-05T18:16:36.787Z,4.30
2018-06-05T18:21:40.572Z,3.77
2018-06-05T18:26:45.334Z,3.77
2018-06-05T18:31:50.621Z,5.17
2018-06-05T18:36:55.781Z,5.43
2018-06-05T18:42:00.614Z,4.37
2018-06-05T18:47:04.527Z,4.70
2018-06-05T18:52:08.233Z,4.63
2018-06-05T18:57:12.017Z,4.40
2018-06-05T19:02:16.604Z,4.67
2018-06-05T19:07:21.011Z,5.07
2018-06-05T19:12:24.769Z,4.40
2018-06-05T19:17:28.853Z,4.80
2018-06-05T19:22:32.559Z,4.93
2018-06-05T19:27:36.254Z,5.97
2018-06-05T19:38:07.045Z,8.70
2018-06-05T19:43:11.161Z,6.10
2018-06-05T19:48:14.793Z,7.00
2018-06-05T19:53:18.900Z,7.00
2018-06-05T19:58:22.794Z,7.53
2018-06-05T20:03:29.937Z,6.83
2018-06-05T20:08:33.578Z,8.20
2018-06-05T20:13:37.259Z,6.87
2018-06-05T20:18:40.898Z,8.73
2018-06-05T20:23:44.525Z,7.07
2018-06-05T20:28:48.185Z,6.17
2018-06-05T20:33:51.875Z,7.30
2018-06-05T20:38:55.596Z,7.17
2018-06-05T20:43:59.237Z,6.53
2018-06-05T20:49:02.808Z,6.07
2018-06-05T20:59:32.086Z,6.60
2018-06-05T21:04:35.799Z,6.50
2018-06-05T21:09:39.500Z,6.27
2018-06-05T21:14:43.199Z,6.53
2018-06-05T21:19:47.129Z,5.97
2018-06-05T21:24:50.773Z,5.93
2018-06-05T21:29:54.290Z,5.77
2018-06-05T21:34:57.940Z,5.67
2018-06-05T21:40:01.719Z,5.40
2018-06-05T21:45:05.484Z,5.70
2018-06-05T21:50:09.032Z,6.40
2018-06-05T21:55:12.256Z,6.60
2018-06-05T22:00:18.966Z,11.73
2018-06-05T22:05:22.589Z,6.23
2018-06-05T22:10:26.172Z,6.77
2018-06-05T22:15:29.658Z,6.87
2018-06-05T22:20:33.121Z,7.13
2018-06-05T22:25:36.604Z,6.47
2018-06-05T22:30:40.146Z,5.77
2018-06-05T22:35:43.670Z,5.90
2018-06-05T22:40:47.166Z,6.60
2018-06-05T22:45:50.684Z,5.13
2018-06-05T22:50:54.168Z,6.50
2018-06-05T22:55:57.630Z,5.93
2018-06-05T23:01:01.143Z,6.93
2018-06-05T23:06:04.773Z,6.53
2018-06-05T23:11:08.305Z,8.43
2018-06-05T23:16:12.623Z,6.07
2018-06-05T23:21:16.108Z,6.13
2018-06-05T23:26:19.668Z,4.97
2018-06-05T23:31:23.179Z,6.10
2018-06-05T23:36:26.788Z,5.60
2018-06-05T23:41:30.248Z,5.97
2018-06-05T23:46:33.743Z,6.20
2018-06-05T23:51:37.237Z,7.30
2018-06-05T23:56:40.807Z,6.57
